New Holland, South Dakota
Current Conditions -  °F | °C
As of 11:53 PM on Tuesday 27 Jan 2015 (Local Time) from KMHE Reporting Station
Clear Clear  
Wind Chill: 27°   Ceiling: Unl
Heat Index: 36°   Visibility: 10mi
Dew Point: 32°   Wind: 14mph
Humidity: 86%   Direction: 160°SSE
Pressure: 29.88"   Gusts: NA
Location:  43.43°N, 98.61°W
Report Text: KMHE 280553Z AUTO 16012KT 10SM CLR 02/00 A2988 RMK AO2 SLP127 T00220000 10044 20022 400941022 56010
Loading
Personal Weather Stations






























Interactive Weather Map New forecast layout! Learn more

10-Day Weather Forecast

Advertisements
Track Severe Weather on mobile